sensor_id;sensor_type;location;lat;lon;timestamp;temperature;humidity
68358;DHT22;55276;53.260;50.222;2022-09-13T00:00:15;10.00;67.80
68358;DHT22;55276;53.260;50.222;2022-09-13T00:02:41;10.00;67.80
68358;DHT22;55276;53.260;50.222;2022-09-13T00:05:07;10.00;67.70
68358;DHT22;55276;53.260;50.222;2022-09-13T00:07:33;10.00;67.60
68358;DHT22;55276;53.260;50.222;2022-09-13T00:09:59;10.00;67.70
68358;DHT22;55276;53.260;50.222;2022-09-13T00:12:25;10.00;67.60
68358;DHT22;55276;53.260;50.222;2022-09-13T00:14:51;10.00;67.60
68358;DHT22;55276;53.260;50.222;2022-09-13T00:17:17;9.90;67.60
68358;DHT22;55276;53.260;50.222;2022-09-13T00:19:43;9.90;67.70
68358;DHT22;55276;53.260;50.222;2022-09-13T00:22:09;9.90;67.80
68358;DHT22;55276;53.260;50.222;2022-09-13T00:24:35;9.90;67.80
68358;DHT22;55276;53.260;50.222;2022-09-13T00:27:02;9.90;68.00
68358;DHT22;55276;53.260;50.222;2022-09-13T00:29:27;9.90;68.00
68358;DHT22;55276;53.260;50.222;2022-09-13T00:31:53;9.80;68.00
68358;DHT22;55276;53.260;50.222;2022-09-13T00:34:19;9.80;68.20
68358;DHT22;55276;53.260;50.222;2022-09-13T00:36:45;9.80;68.30
68358;DHT22;55276;53.260;50.222;2022-09-13T00:39:11;9.70;68.50
68358;DHT22;55276;53.260;50.222;2022-09-13T00:41:37;9.70;68.70
68358;DHT22;55276;53.260;50.222;2022-09-13T00:44:03;9.60;68.80
68358;DHT22;55276;53.260;50.222;2022-09-13T00:46:33;9.60;68.90
68358;DHT22;55276;53.260;50.222;2022-09-13T00:49:01;9.60;68.90
68358;DHT22;55276;53.260;50.222;2022-09-13T00:51:28;9.60;69.00
68358;DHT22;55276;53.260;50.222;2022-09-13T00:53:54;9.60;69.10
68358;DHT22;55276;53.260;50.222;2022-09-13T00:56:32;9.50;69.10
68358;DHT22;55276;53.260;50.222;2022-09-13T00:59:09;9.50;69.20
68358;DHT22;55276;53.260;50.222;2022-09-13T01:01:39;9.50;69.30
68358;DHT22;55276;53.260;50.222;2022-09-13T01:04:08;9.50;69.20
68358;DHT22;55276;53.260;50.222;2022-09-13T01:06:34;9.50;69.30
68358;DHT22;55276;53.260;50.222;2022-09-13T01:09:00;9.50;69.30
68358;DHT22;55276;53.260;50.222;2022-09-13T01:11:48;9.50;69.30
68358;DHT22;55276;53.260;50.222;2022-09-13T01:14:15;9.40;69.40
68358;DHT22;55276;53.260;50.222;2022-09-13T01:16:45;9.40;69.50
68358;DHT22;55276;53.260;50.222;2022-09-13T01:19:13;9.40;69.50
68358;DHT22;55276;53.260;50.222;2022-09-13T01:29:29;9.40;69.60
68358;DHT22;55276;53.260;50.222;2022-09-13T01:32:05;9.40;69.60
68358;DHT22;55276;53.260;50.222;2022-09-13T01:34:55;9.30;69.50
68358;DHT22;55276;53.260;50.222;2022-09-13T01:37:40;9.30;69.40
68358;DHT22;55276;53.260;50.222;2022-09-13T01:47:53;9.30;69.10
68358;DHT22;55276;53.260;50.222;2022-09-13T01:52:55;9.30;69.00
68358;DHT22;55276;53.260;50.222;2022-09-13T01:58:02;9.30;68.90
68358;DHT22;55276;53.260;50.222;2022-09-13T02:00:30;9.30;68.80
68358;DHT22;55276;53.260;50.222;2022-09-13T02:05:36;9.30;68.80
68358;DHT22;55276;53.260;50.222;2022-09-13T02:08:04;9.30;68.80
68358;DHT22;55276;53.260;50.222;2022-09-13T02:10:32;9.30;68.80
68358;DHT22;55276;53.260;50.222;2022-09-13T02:12:58;9.30;68.90
68358;DHT22;55276;53.260;50.222;2022-09-13T02:15:31;9.30;68.80
68358;DHT22;55276;53.260;50.222;2022-09-13T02:18:04;9.30;68.90
68358;DHT22;55276;53.260;50.222;2022-09-13T02:20:34;9.30;69.00
68358;DHT22;55276;53.260;50.222;2022-09-13T02:23:02;9.20;69.10
68358;DHT22;55276;53.260;50.222;2022-09-13T02:25:30;9.20;69.10
68358;DHT22;55276;53.260;50.222;2022-09-13T02:27:59;9.20;69.10
68358;DHT22;55276;53.260;50.222;2022-09-13T02:30:27;9.20;69.10
68358;DHT22;55276;53.260;50.222;2022-09-13T02:33:12;9.20;69.10
68358;DHT22;55276;53.260;50.222;2022-09-13T02:38:17;9.20;69.20
68358;DHT22;55276;53.260;50.222;2022-09-13T02:40:48;9.20;69.20
68358;DHT22;55276;53.260;50.222;2022-09-13T02:43:21;9.20;69.20
68358;DHT22;55276;53.260;50.222;2022-09-13T02:46:00;9.20;69.20
68358;DHT22;55276;53.260;50.222;2022-09-13T02:51:23;9.30;69.20
68358;DHT22;55276;53.260;50.222;2022-09-13T02:58:49;9.30;68.90
68358;DHT22;55276;53.260;50.222;2022-09-13T03:01:17;9.30;68.80
68358;DHT22;55276;53.260;50.222;2022-09-13T03:03:43;9.30;68.80
68358;DHT22;55276;53.260;50.222;2022-09-13T03:06:09;9.40;68.80
68358;DHT22;55276;53.260;50.222;2022-09-13T03:08:35;9.40;68.60
68358;DHT22;55276;53.260;50.222;2022-09-13T03:11:14;9.40;68.50
68358;DHT22;55276;53.260;50.222;2022-09-13T03:19:16;9.70;68.20
68358;DHT22;55276;53.260;50.222;2022-09-13T03:24:28;9.70;67.80
68358;DHT22;55276;53.260;50.222;2022-09-13T03:27:02;9.80;67.70
68358;DHT22;55276;53.260;50.222;2022-09-13T03:30:06;9.90;67.40
68358;DHT22;55276;53.260;50.222;2022-09-13T03:32:47;9.90;67.30
68358;DHT22;55276;53.260;50.222;2022-09-13T03:40:17;10.20;66.70
68358;DHT22;55276;53.260;50.222;2022-09-13T03:43:07;10.30;66.50
68358;DHT22;55276;53.260;50.222;2022-09-13T03:45:37;10.40;66.30
68358;DHT22;55276;53.260;50.222;2022-09-13T03:48:05;10.40;65.90
68358;DHT22;55276;53.260;50.222;2022-09-13T03:50:32;10.50;65.80
68358;DHT22;55276;53.260;50.222;2022-09-13T03:52:59;10.50;65.80
68358;DHT22;55276;53.260;50.222;2022-09-13T03:55:26;10.60;65.50
68358;DHT22;55276;53.260;50.222;2022-09-13T03:57:53;10.70;65.30
68358;DHT22;55276;53.260;50.222;2022-09-13T04:00:19;10.80;65.00
68358;DHT22;55276;53.260;50.222;2022-09-13T04:02:45;10.90;64.90
68358;DHT22;55276;53.260;50.222;2022-09-13T04:05:11;11.30;64.40
68358;DHT22;55276;53.260;50.222;2022-09-13T04:07:37;11.60;63.50
68358;DHT22;55276;53.260;50.222;2022-09-13T04:10:03;11.70;63.20
68358;DHT22;55276;53.260;50.222;2022-09-13T04:12:29;11.70;63.00
68358;DHT22;55276;53.260;50.222;2022-09-13T04:14:56;11.80;62.70
68358;DHT22;55276;53.260;50.222;2022-09-13T04:17:23;11.90;62.60
68358;DHT22;55276;53.260;50.222;2022-09-13T04:19:48;11.90;62.20
68358;DHT22;55276;53.260;50.222;2022-09-13T04:22:14;11.90;61.90
68358;DHT22;55276;53.260;50.222;2022-09-13T04:24:40;11.80;61.90
68358;DHT22;55276;53.260;50.222;2022-09-13T04:27:07;11.80;61.60
68358;DHT22;55276;53.260;50.222;2022-09-13T04:29:34;11.80;61.80
68358;DHT22;55276;53.260;50.222;2022-09-13T04:32:00;11.70;62.00
68358;DHT22;55276;53.260;50.222;2022-09-13T04:34:26;11.80;62.10
68358;DHT22;55276;53.260;50.222;2022-09-13T04:36:52;11.90;61.80
68358;DHT22;55276;53.260;50.222;2022-09-13T04:39:19;12.00;61.60
68358;DHT22;55276;53.260;50.222;2022-09-13T04:41:45;12.00;61.70
68358;DHT22;55276;53.260;50.222;2022-09-13T04:44:15;12.00;61.70
68358;DHT22;55276;53.260;50.222;2022-09-13T04:46:41;12.10;61.50
68358;DHT22;55276;53.260;50.222;2022-09-13T04:49:11;12.30;61.20
68358;DHT22;55276;53.260;50.222;2022-09-13T04:51:37;12.30;60.80
68358;DHT22;55276;53.260;50.222;2022-09-13T04:54:03;12.30;60.40
68358;DHT22;55276;53.260;50.222;2022-09-13T04:56:30;12.40;60.50
68358;DHT22;55276;53.260;50.222;2022-09-13T04:58:55;12.40;60.30
68358;DHT22;55276;53.260;50.222;2022-09-13T05:01:22;12.40;60.50
68358;DHT22;55276;53.260;50.222;2022-09-13T05:03:49;12.50;60.50
68358;DHT22;55276;53.260;50.222;2022-09-13T05:06:15;12.70;60.40
68358;DHT22;55276;53.260;50.222;2022-09-13T05:08:44;12.90;59.40
68358;DHT22;55276;53.260;50.222;2022-09-13T05:11:14;12.70;59.20
68358;DHT22;55276;53.260;50.222;2022-09-13T05:13:39;12.80;59.50
68358;DHT22;55276;53.260;50.222;2022-09-13T05:16:06;13.00;59.30
68358;DHT22;55276;53.260;50.222;2022-09-13T05:18:35;13.20;59.00
68358;DHT22;55276;53.260;50.222;2022-09-13T05:21:02;13.30;58.40
68358;DHT22;55276;53.260;50.222;2022-09-13T05:23:28;13.40;58.20
68358;DHT22;55276;53.260;50.222;2022-09-13T05:25:56;13.30;58.00
68358;DHT22;55276;53.260;50.222;2022-09-13T05:28:22;13.30;58.20
68358;DHT22;55276;53.260;50.222;2022-09-13T05:30:55;13.40;57.90
68358;DHT22;55276;53.260;50.222;2022-09-13T05:33:24;13.60;58.00
68358;DHT22;55276;53.260;50.222;2022-09-13T05:35:50;13.70;57.40
68358;DHT22;55276;53.260;50.222;2022-09-13T05:38:16;13.70;57.50
68358;DHT22;55276;53.260;50.222;2022-09-13T05:40:42;13.80;57.20
68358;DHT22;55276;53.260;50.222;2022-09-13T05:43:08;13.80;57.20
68358;DHT22;55276;53.260;50.222;2022-09-13T05:45:34;13.80;57.10
68358;DHT22;55276;53.260;50.222;2022-09-13T05:48:00;13.90;57.10
68358;DHT22;55276;53.260;50.222;2022-09-13T05:50:26;14.00;56.60
68358;DHT22;55276;53.260;50.222;2022-09-13T05:52:52;14.10;56.60
68358;DHT22;55276;53.260;50.222;2022-09-13T05:55:18;14.20;56.50
68358;DHT22;55276;53.260;50.222;2022-09-13T05:57:44;14.30;56.00
68358;DHT22;55276;53.260;50.222;2022-09-13T06:00:10;14.20;55.70
68358;DHT22;55276;53.260;50.222;2022-09-13T06:02:36;14.00;55.90
68358;DHT22;55276;53.260;50.222;2022-09-13T06:05:02;14.00;56.10
68358;DHT22;55276;53.260;50.222;2022-09-13T06:07:28;14.10;56.00
68358;DHT22;55276;53.260;50.222;2022-09-13T06:09:54;14.10;56.20
68358;DHT22;55276;53.260;50.222;2022-09-13T06:12:20;14.30;56.10
68358;DHT22;55276;53.260;50.222;2022-09-13T06:14:46;14.40;55.80
68358;DHT22;55276;53.260;50.222;2022-09-13T06:17:12;14.40;55.80
68358;DHT22;55276;53.260;50.222;2022-09-13T06:19:39;14.60;55.20
68358;DHT22;55276;53.260;50.222;2022-09-13T06:22:05;14.70;55.10
68358;DHT22;55276;53.260;50.222;2022-09-13T06:24:31;14.80;54.90
68358;DHT22;55276;53.260;50.222;2022-09-13T06:26:57;14.80;54.70
68358;DHT22;55276;53.260;50.222;2022-09-13T06:29:23;14.80;53.80
68358;DHT22;55276;53.260;50.222;2022-09-13T06:31:49;14.80;53.60
68358;DHT22;55276;53.260;50.222;2022-09-13T06:34:15;14.90;53.60
68358;DHT22;55276;53.260;50.222;2022-09-13T06:36:42;14.90;53.60
68358;DHT22;55276;53.260;50.222;2022-09-13T06:39:08;14.90;53.20
68358;DHT22;55276;53.260;50.222;2022-09-13T06:41:34;14.90;53.50
68358;DHT22;55276;53.260;50.222;2022-09-13T06:44:01;15.10;53.50
68358;DHT22;55276;53.260;50.222;2022-09-13T06:46:27;15.20;53.50
68358;DHT22;55276;53.260;50.222;2022-09-13T06:48:54;15.20;53.40
68358;DHT22;55276;53.260;50.222;2022-09-13T06:51:21;15.30;52.80
68358;DHT22;55276;53.260;50.222;2022-09-13T06:53:48;15.30;52.50
68358;DHT22;55276;53.260;50.222;2022-09-13T06:56:18;15.30;52.50
68358;DHT22;55276;53.260;50.222;2022-09-13T06:58:45;15.40;52.60
68358;DHT22;55276;53.260;50.222;2022-09-13T07:01:13;15.30;52.50
68358;DHT22;55276;53.260;50.222;2022-09-13T07:03:46;15.40;52.50
68358;DHT22;55276;53.260;50.222;2022-09-13T07:06:20;15.40;52.20
68358;DHT22;55276;53.260;50.222;2022-09-13T07:08:46;15.50;52.20
68358;DHT22;55276;53.260;50.222;2022-09-13T07:11:13;15.80;52.00
68358;DHT22;55276;53.260;50.222;2022-09-13T07:13:39;15.80;51.40
68358;DHT22;55276;53.260;50.222;2022-09-13T07:16:09;15.80;50.90
68358;DHT22;55276;53.260;50.222;2022-09-13T07:18:36;15.80;50.90
68358;DHT22;55276;53.260;50.222;2022-09-13T07:21:03;15.80;51.20
68358;DHT22;55276;53.260;50.222;2022-09-13T07:23:29;16.00;51.20
68358;DHT22;55276;53.260;50.222;2022-09-13T07:25:56;16.10;50.70
68358;DHT22;55276;53.260;50.222;2022-09-13T07:28:36;16.30;50.50
68358;DHT22;55276;53.260;50.222;2022-09-13T07:31:04;16.30;50.50
68358;DHT22;55276;53.260;50.222;2022-09-13T07:33:32;16.40;50.50
68358;DHT22;55276;53.260;50.222;2022-09-13T07:35:58;16.50;50.10
68358;DHT22;55276;53.260;50.222;2022-09-13T07:38:25;16.60;49.90
68358;DHT22;55276;53.260;50.222;2022-09-13T07:40:52;16.60;49.80
68358;DHT22;55276;53.260;50.222;2022-09-13T07:43:19;16.60;49.90
68358;DHT22;55276;53.260;50.222;2022-09-13T07:45:45;16.80;49.70
68358;DHT22;55276;53.260;50.222;2022-09-13T07:48:10;16.80;49.60
68358;DHT22;55276;53.260;50.222;2022-09-13T07:50:36;16.80;49.80
68358;DHT22;55276;53.260;50.222;2022-09-13T07:53:02;16.70;49.30
68358;DHT22;55276;53.260;50.222;2022-09-13T07:55:28;16.70;49.50
68358;DHT22;55276;53.260;50.222;2022-09-13T07:57:55;16.90;49.40
68358;DHT22;55276;53.260;50.222;2022-09-13T08:00:22;17.10;49.20
68358;DHT22;55276;53.260;50.222;2022-09-13T08:02:49;17.30;48.50
68358;DHT22;55276;53.260;50.222;2022-09-13T08:05:15;17.30;48.30
68358;DHT22;55276;53.260;50.222;2022-09-13T08:07:41;17.30;47.40
68358;DHT22;55276;53.260;50.222;2022-09-13T08:10:07;17.30;47.00
68358;DHT22;55276;53.260;50.222;2022-09-13T08:12:33;17.30;46.50
68358;DHT22;55276;53.260;50.222;2022-09-13T08:14:58;17.30;46.90
68358;DHT22;55276;53.260;50.222;2022-09-13T08:17:25;17.50;46.50
68358;DHT22;55276;53.260;50.222;2022-09-13T08:19:51;17.60;45.90
68358;DHT22;55276;53.260;50.222;2022-09-13T08:22:17;17.80;45.80
68358;DHT22;55276;53.260;50.222;2022-09-13T08:24:44;17.70;45.80
68358;DHT22;55276;53.260;50.222;2022-09-13T08:27:10;17.70;45.90
68358;DHT22;55276;53.260;50.222;2022-09-13T08:29:38;17.90;45.70
68358;DHT22;55276;53.260;50.222;2022-09-13T08:32:04;18.20;44.90
68358;DHT22;55276;53.260;50.222;2022-09-13T08:34:30;18.40;44.40
68358;DHT22;55276;53.260;50.222;2022-09-13T08:36:56;18.60;43.60
68358;DHT22;55276;53.260;50.222;2022-09-13T08:39:22;18.70;42.20
68358;DHT22;55276;53.260;50.222;2022-09-13T08:41:52;18.70;40.90
68358;DHT22;55276;53.260;50.222;2022-09-13T08:46:51;18.60;40.70
68358;DHT22;55276;53.260;50.222;2022-09-13T08:49:20;18.60;41.10
68358;DHT22;55276;53.260;50.222;2022-09-13T08:51:49;18.70;41.20
68358;DHT22;55276;53.260;50.222;2022-09-13T08:54:16;18.90;41.10
68358;DHT22;55276;53.260;50.222;2022-09-13T08:59:37;19.00;40.30
68358;DHT22;55276;53.260;50.222;2022-09-13T09:02:22;19.00;40.30
68358;DHT22;55276;53.260;50.222;2022-09-13T09:04:53;19.10;40.40
68358;DHT22;55276;53.260;50.222;2022-09-13T09:07:31;19.00;39.80
68358;DHT22;55276;53.260;50.222;2022-09-13T09:09:59;19.20;40.00
68358;DHT22;55276;53.260;50.222;2022-09-13T09:17:50;19.40;39.30
68358;DHT22;55276;53.260;50.222;2022-09-13T09:20:29;19.40;39.30
68358;DHT22;55276;53.260;50.222;2022-09-13T09:23:01;19.40;39.40
68358;DHT22;55276;53.260;50.222;2022-09-13T09:25:27;19.30;39.40
68358;DHT22;55276;53.260;50.222;2022-09-13T09:27:53;19.40;39.90
68358;DHT22;55276;53.260;50.222;2022-09-13T09:30:19;19.70;39.60
68358;DHT22;55276;53.260;50.222;2022-09-13T09:32:51;19.60;39.20
68358;DHT22;55276;53.260;50.222;2022-09-13T09:35:28;19.40;39.50
68358;DHT22;55276;53.260;50.222;2022-09-13T09:38:04;19.20;39.60
68358;DHT22;55276;53.260;50.222;2022-09-13T09:40:35;19.00;40.30
68358;DHT22;55276;53.260;50.222;2022-09-13T09:43:10;19.20;40.30
68358;DHT22;55276;53.260;50.222;2022-09-13T09:45:39;19.30;40.20
68358;DHT22;55276;53.260;50.222;2022-09-13T09:48:09;19.40;40.30
68358;DHT22;55276;53.260;50.222;2022-09-13T09:50:43;19.50;40.40
68358;DHT22;55276;53.260;50.222;2022-09-13T09:53:13;19.70;40.30
68358;DHT22;55276;53.260;50.222;2022-09-13T09:55:51;19.80;40.10
68358;DHT22;55276;53.260;50.222;2022-09-13T09:58:39;19.90;39.60
68358;DHT22;55276;53.260;50.222;2022-09-13T10:01:13;19.90;39.70
68358;DHT22;55276;53.260;50.222;2022-09-13T10:03:41;19.90;39.60
68358;DHT22;55276;53.260;50.222;2022-09-13T10:06:08;19.80;39.20
68358;DHT22;55276;53.260;50.222;2022-09-13T10:08:35;19.60;39.60
68358;DHT22;55276;53.260;50.222;2022-09-13T10:11:02;19.60;39.70
68358;DHT22;55276;53.260;50.222;2022-09-13T10:13:28;19.80;39.70
68358;DHT22;55276;53.260;50.222;2022-09-13T10:15:57;20.00;39.30
68358;DHT22;55276;53.260;50.222;2022-09-13T10:18:24;20.20;39.00
68358;DHT22;55276;53.260;50.222;2022-09-13T10:20:58;20.10;39.00
68358;DHT22;55276;53.260;50.222;2022-09-13T10:23:28;20.10;39.10
68358;DHT22;55276;53.260;50.222;2022-09-13T10:25:59;20.00;39.00
68358;DHT22;55276;53.260;50.222;2022-09-13T10:28:27;20.30;38.90
68358;DHT22;55276;53.260;50.222;2022-09-13T10:30:58;20.60;38.40
68358;DHT22;55276;53.260;50.222;2022-09-13T10:33:31;20.80;38.10
68358;DHT22;55276;53.260;50.222;2022-09-13T10:35:59;20.90;37.90
68358;DHT22;55276;53.260;50.222;2022-09-13T10:38:33;20.90;37.50
68358;DHT22;55276;53.260;50.222;2022-09-13T10:41:01;21.00;37.30
68358;DHT22;55276;53.260;50.222;2022-09-13T10:43:28;20.90;37.20
68358;DHT22;55276;53.260;50.222;2022-09-13T10:45:55;21.00;37.40
68358;DHT22;55276;53.260;50.222;2022-09-13T10:48:22;21.00;36.80
68358;DHT22;55276;53.260;50.222;2022-09-13T10:53:33;20.90;37.30
68358;DHT22;55276;53.260;50.222;2022-09-13T10:55:59;21.00;37.20
68358;DHT22;55276;53.260;50.222;2022-09-13T10:58:27;20.90;37.30
68358;DHT22;55276;53.260;50.222;2022-09-13T11:01:00;21.00;37.50
68358;DHT22;55276;53.260;50.222;2022-09-13T11:03:34;21.00;37.60
68358;DHT22;55276;53.260;50.222;2022-09-13T11:16:33;20.40;38.10
68358;DHT22;55276;53.260;50.222;2022-09-13T11:34:58;24.10;32.90
68358;DHT22;55276;53.260;50.222;2022-09-13T11:40:21;24.40;32.80
68358;DHT22;55276;53.260;50.222;2022-09-13T11:53:36;23.30;33.50
68358;DHT22;55276;53.260;50.222;2022-09-13T11:56:04;24.10;32.70
68358;DHT22;55276;53.260;50.222;2022-09-13T11:58:35;24.80;32.00
68358;DHT22;55276;53.260;50.222;2022-09-13T12:01:06;25.30;30.80
68358;DHT22;55276;53.260;50.222;2022-09-13T12:03:36;25.30;30.90
68358;DHT22;55276;53.260;50.222;2022-09-13T12:06:04;25.40;30.20
68358;DHT22;55276;53.260;50.222;2022-09-13T12:08:31;25.50;30.20
68358;DHT22;55276;53.260;50.222;2022-09-13T12:13:52;25.40;30.60
68358;DHT22;55276;53.260;50.222;2022-09-13T12:16:43;25.10;30.80
68358;DHT22;55276;53.260;50.222;2022-09-13T12:19:12;24.80;31.40
68358;DHT22;55276;53.260;50.222;2022-09-13T12:21:40;24.20;31.90
68358;DHT22;55276;53.260;50.222;2022-09-13T12:26:52;22.40;33.70
68358;DHT22;55276;53.260;50.222;2022-09-13T12:29:32;21.80;34.30
68358;DHT22;55276;53.260;50.222;2022-09-13T12:32:02;21.30;35.10
68358;DHT22;55276;53.260;50.222;2022-09-13T12:39:58;20.60;35.90
68358;DHT22;55276;53.260;50.222;2022-09-13T12:42:34;20.20;36.30
68358;DHT22;55276;53.260;50.222;2022-09-13T12:45:21;19.90;36.80
68358;DHT22;55276;53.260;50.222;2022-09-13T12:53:07;19.80;37.50
68358;DHT22;55276;53.260;50.222;2022-09-13T13:03:31;19.30;38.60
68358;DHT22;55276;53.260;50.222;2022-09-13T13:06:17;19.30;38.80
68358;DHT22;55276;53.260;50.222;2022-09-13T13:08:51;19.20;39.10
68358;DHT22;55276;53.260;50.222;2022-09-13T13:11:19;19.10;39.40
68358;DHT22;55276;53.260;50.222;2022-09-13T13:14:09;18.90;39.70
68358;DHT22;55276;53.260;50.222;2022-09-13T13:16:37;18.80;39.80
68358;DHT22;55276;53.260;50.222;2022-09-13T13:19:26;18.80;39.90
68358;DHT22;55276;53.260;50.222;2022-09-13T13:21:51;18.80;39.90
68358;DHT22;55276;53.260;50.222;2022-09-13T13:26:46;18.70;40.30
68358;DHT22;55276;53.260;50.222;2022-09-13T13:31:41;18.60;40.30
68358;DHT22;55276;53.260;50.222;2022-09-13T13:46:50;18.20;41.30
68358;DHT22;55276;53.260;50.222;2022-09-13T13:50:03;18.10;41.30
68358;DHT22;55276;53.260;50.222;2022-09-13T13:55:22;17.90;41.70
68358;DHT22;55276;53.260;50.222;2022-09-13T13:58:00;17.90;41.70
68358;DHT22;55276;53.260;50.222;2022-09-13T14:00:32;17.90;41.70
68358;DHT22;55276;53.260;50.222;2022-09-13T14:03:10;17.80;41.90
68358;DHT22;55276;53.260;50.222;2022-09-13T14:08:42;17.70;42.50
68358;DHT22;55276;53.260;50.222;2022-09-13T14:13:53;17.50;43.50
68358;DHT22;55276;53.260;50.222;2022-09-13T14:19:14;17.40;44.20
68358;DHT22;55276;53.260;50.222;2022-09-13T14:21:43;17.30;44.50
68358;DHT22;55276;53.260;50.222;2022-09-13T14:24:17;17.30;44.80
68358;DHT22;55276;53.260;50.222;2022-09-13T14:26:44;17.20;45.00
68358;DHT22;55276;53.260;50.222;2022-09-13T14:29:11;17.20;45.30
68358;DHT22;55276;53.260;50.222;2022-09-13T14:31:39;17.10;45.60
68358;DHT22;55276;53.260;50.222;2022-09-13T14:34:18;17.00;45.70
68358;DHT22;55276;53.260;50.222;2022-09-13T14:36:51;16.90;45.80
68358;DHT22;55276;53.260;50.222;2022-09-13T14:39:18;16.90;45.90
68358;DHT22;55276;53.260;50.222;2022-09-13T14:41:44;16.90;45.90
68358;DHT22;55276;53.260;50.222;2022-09-13T14:44:28;16.90;45.90
68358;DHT22;55276;53.260;50.222;2022-09-13T14:47:03;16.90;46.00
68358;DHT22;55276;53.260;50.222;2022-09-13T14:49:32;16.80;46.20
68358;DHT22;55276;53.260;50.222;2022-09-13T14:52:07;16.80;46.20
68358;DHT22;55276;53.260;50.222;2022-09-13T14:54:39;16.80;46.30
68358;DHT22;55276;53.260;50.222;2022-09-13T14:57:08;16.70;46.40
68358;DHT22;55276;53.260;50.222;2022-09-13T14:59:42;16.70;46.20
68358;DHT22;55276;53.260;50.222;2022-09-13T15:02:17;16.70;46.30
68358;DHT22;55276;53.260;50.222;2022-09-13T15:04:46;16.60;46.30
68358;DHT22;55276;53.260;50.222;2022-09-13T15:07:18;16.70;46.30
68358;DHT22;55276;53.260;50.222;2022-09-13T15:09:44;16.60;46.30
68358;DHT22;55276;53.260;50.222;2022-09-13T15:12:24;16.60;46.40
68358;DHT22;55276;53.260;50.222;2022-09-13T15:17:54;16.60;46.30
68358;DHT22;55276;53.260;50.222;2022-09-13T15:20:20;16.50;46.20
68358;DHT22;55276;53.260;50.222;2022-09-13T15:22:47;16.50;46.30
68358;DHT22;55276;53.260;50.222;2022-09-13T15:25:19;16.50;46.10
68358;DHT22;55276;53.260;50.222;2022-09-13T15:27:46;16.50;46.10
68358;DHT22;55276;53.260;50.222;2022-09-13T15:30:23;16.40;46.10
68358;DHT22;55276;53.260;50.222;2022-09-13T15:33:02;16.40;46.00
68358;DHT22;55276;53.260;50.222;2022-09-13T15:35:33;16.40;46.10
68358;DHT22;55276;53.260;50.222;2022-09-13T15:38:14;16.40;46.10
68358;DHT22;55276;53.260;50.222;2022-09-13T15:40:45;16.40;46.10
68358;DHT22;55276;53.260;50.222;2022-09-13T15:43:11;16.30;46.10
68358;DHT22;55276;53.260;50.222;2022-09-13T15:45:40;16.30;46.10
68358;DHT22;55276;53.260;50.222;2022-09-13T15:48:06;16.30;46.00
68358;DHT22;55276;53.260;50.222;2022-09-13T15:50:32;16.30;45.90
68358;DHT22;55276;53.260;50.222;2022-09-13T15:52:58;16.30;45.90
68358;DHT22;55276;53.260;50.222;2022-09-13T15:55:25;16.30;46.00
68358;DHT22;55276;53.260;50.222;2022-09-13T15:57:54;16.30;45.90
68358;DHT22;55276;53.260;50.222;2022-09-13T16:00:21;16.30;45.80
68358;DHT22;55276;53.260;50.222;2022-09-13T16:02:47;16.30;45.70
68358;DHT22;55276;53.260;50.222;2022-09-13T16:05:13;16.30;45.80
68358;DHT22;55276;53.260;50.222;2022-09-13T16:07:39;16.30;45.80
68358;DHT22;55276;53.260;50.222;2022-09-13T16:10:09;16.30;45.80
68358;DHT22;55276;53.260;50.222;2022-09-13T16:12:36;16.30;45.80
68358;DHT22;55276;53.260;50.222;2022-09-13T16:15:01;16.30;45.80
68358;DHT22;55276;53.260;50.222;2022-09-13T16:17:27;16.30;45.70
68358;DHT22;55276;53.260;50.222;2022-09-13T16:19:54;16.20;45.80
68358;DHT22;55276;53.260;50.222;2022-09-13T16:22:20;16.30;45.70
68358;DHT22;55276;53.260;50.222;2022-09-13T16:24:46;16.30;45.60
68358;DHT22;55276;53.260;50.222;2022-09-13T16:27:14;16.30;45.50
68358;DHT22;55276;53.260;50.222;2022-09-13T16:29:40;16.30;45.50
68358;DHT22;55276;53.260;50.222;2022-09-13T16:32:06;16.30;45.50
68358;DHT22;55276;53.260;50.222;2022-09-13T16:34:32;16.30;45.50
68358;DHT22;55276;53.260;50.222;2022-09-13T16:36:58;16.30;45.50
68358;DHT22;55276;53.260;50.222;2022-09-13T16:39:24;16.30;45.50
68358;DHT22;55276;53.260;50.222;2022-09-13T16:41:50;16.30;45.30
68358;DHT22;55276;53.260;50.222;2022-09-13T16:44:16;16.30;45.40
68358;DHT22;55276;53.260;50.222;2022-09-13T16:46:59;16.30;45.40
68358;DHT22;55276;53.260;50.222;2022-09-13T16:49:25;16.30;45.20
68358;DHT22;55276;53.260;50.222;2022-09-13T16:51:51;16.30;45.20
68358;DHT22;55276;53.260;50.222;2022-09-13T16:54:18;16.30;45.00
68358;DHT22;55276;53.260;50.222;2022-09-13T16:56:44;16.30;45.00
68358;DHT22;55276;53.260;50.222;2022-09-13T16:59:09;16.30;44.90
68358;DHT22;55276;53.260;50.222;2022-09-13T17:01:36;16.30;44.80
68358;DHT22;55276;53.260;50.222;2022-09-13T17:04:08;16.30;44.80
68358;DHT22;55276;53.260;50.222;2022-09-13T17:06:36;16.30;44.80
68358;DHT22;55276;53.260;50.222;2022-09-13T17:09:03;16.30;44.80
68358;DHT22;55276;53.260;50.222;2022-09-13T17:11:31;16.30;44.80
68358;DHT22;55276;53.260;50.222;2022-09-13T17:13:58;16.30;44.80
68358;DHT22;55276;53.260;50.222;2022-09-13T17:18:54;16.30;44.70
68358;DHT22;55276;53.260;50.222;2022-09-13T17:21:21;16.30;44.70
68358;DHT22;55276;53.260;50.222;2022-09-13T17:23:48;16.40;44.60
68358;DHT22;55276;53.260;50.222;2022-09-13T17:26:14;16.30;44.50
68358;DHT22;55276;53.260;50.222;2022-09-13T17:28:40;16.40;44.50
68358;DHT22;55276;53.260;50.222;2022-09-13T17:31:06;16.40;44.50
68358;DHT22;55276;53.260;50.222;2022-09-13T17:33:32;16.30;44.50
68358;DHT22;55276;53.260;50.222;2022-09-13T17:35:59;16.40;44.60
68358;DHT22;55276;53.260;50.222;2022-09-13T17:38:25;16.30;44.60
68358;DHT22;55276;53.260;50.222;2022-09-13T17:41:10;16.30;44.70
68358;DHT22;55276;53.260;50.222;2022-09-13T17:43:36;16.30;44.60
68358;DHT22;55276;53.260;50.222;2022-09-13T17:46:09;16.30;44.70
68358;DHT22;55276;53.260;50.222;2022-09-13T17:48:36;16.30;44.80
68358;DHT22;55276;53.260;50.222;2022-09-13T17:51:04;16.40;44.70
68358;DHT22;55276;53.260;50.222;2022-09-13T17:53:30;16.30;44.70
68358;DHT22;55276;53.260;50.222;2022-09-13T17:55:58;16.30;44.80
68358;DHT22;55276;53.260;50.222;2022-09-13T17:58:25;16.30;44.90
68358;DHT22;55276;53.260;50.222;2022-09-13T18:00:58;16.30;44.90
68358;DHT22;55276;53.260;50.222;2022-09-13T18:03:25;16.30;44.90
68358;DHT22;55276;53.260;50.222;2022-09-13T18:05:54;16.30;44.90
68358;DHT22;55276;53.260;50.222;2022-09-13T18:08:22;16.30;45.00